createdAt,value
2022-11-03T00:01:15.317Z,40.00
2022-11-03T00:03:42.890Z,39.20
2022-11-03T00:06:11.767Z,20.50
2022-11-03T00:08:41.515Z,17.80
2022-11-03T00:11:11.326Z,19.30
2022-11-03T00:13:40.671Z,18.50
2022-11-03T00:16:09.539Z,38.80
2022-11-03T00:18:37.428Z,20.43
2022-11-03T00:21:06.438Z,18.87
2022-11-03T00:23:37.143Z,21.40
2022-11-03T00:26:06.748Z,20.97
2022-11-03T00:28:35.166Z,19.67
2022-11-03T00:31:06.759Z,21.33
2022-11-03T00:33:34.398Z,20.80
2022-11-03T00:36:02.598Z,20.90
2022-11-03T00:38:30.772Z,20.77
2022-11-03T00:41:01.264Z,23.07
2022-11-03T00:43:30.444Z,18.50
2022-11-03T00:45:58.100Z,23.00
2022-11-03T00:48:32.424Z,24.73
2022-11-03T00:51:04.581Z,27.93
2022-11-03T00:53:33.154Z,24.23
2022-11-03T00:56:02.320Z,23.43
2022-11-03T00:58:30.081Z,23.03
2022-11-03T01:01:02.582Z,20.23
2022-11-03T01:03:30.484Z,24.23
2022-11-03T01:06:15.574Z,20.97
2022-11-03T01:08:43.137Z,32.77
2022-11-03T01:11:31.650Z,22.87
2022-11-03T01:13:59.566Z,21.00
2022-11-03T01:16:27.651Z,24.33
2022-11-03T01:18:55.818Z,23.00
2022-11-03T01:21:23.481Z,21.67
2022-11-03T01:23:51.282Z,20.50
2022-11-03T01:26:20.326Z,26.63
2022-11-03T01:28:48.812Z,17.20
2022-11-03T01:31:18.411Z,33.07
2022-11-03T01:33:47.083Z,27.13
2022-11-03T01:36:15.939Z,47.80
2022-11-03T01:38:44.390Z,57.00
2022-11-03T01:41:14.905Z,57.07
2022-11-03T01:43:44.450Z,55.40
2022-11-03T01:46:19.268Z,59.93
2022-11-03T01:48:56.892Z,39.37
2022-11-03T01:51:27.908Z,35.07
2022-11-03T01:53:58.100Z,45.33
2022-11-03T01:56:27.219Z,29.20
2022-11-03T01:58:56.731Z,40.83
2022-11-03T02:01:24.613Z,37.93
2022-11-03T02:03:56.096Z,43.40
2022-11-03T02:06:26.962Z,34.43
2022-11-03T02:09:00.986Z,47.63
2022-11-03T02:11:46.249Z,23.30
2022-11-03T02:14:15.885Z,21.37
2022-11-03T02:16:48.767Z,20.50
2022-11-03T02:19:23.442Z,19.77
2022-11-03T02:21:59.791Z,23.87
2022-11-03T02:24:37.195Z,23.37
2022-11-03T02:27:06.147Z,22.90
2022-11-03T02:29:33.817Z,26.60
2022-11-03T02:32:08.112Z,18.13
2022-11-03T02:34:43.382Z,18.52
2022-11-03T02:37:16.393Z,21.67
2022-11-03T02:39:47.812Z,21.97
2022-11-03T02:42:20.043Z,24.70
2022-11-03T02:44:48.857Z,22.63
2022-11-03T02:47:19.092Z,23.30
2022-11-03T02:49:48.258Z,21.47
2022-11-03T02:52:37.734Z,24.00
2022-11-03T02:55:13.372Z,21.07
2022-11-03T02:57:49.893Z,18.33
2022-11-03T03:00:18.177Z,19.97
2022-11-03T03:02:56.206Z,17.57
2022-11-03T03:05:27.344Z,16.70
2022-11-03T03:08:00.878Z,17.00
2022-11-03T03:10:33.532Z,18.90
2022-11-03T03:13:04.810Z,18.70
2022-11-03T03:15:41.724Z,15.90
2022-11-03T03:18:17.464Z,16.70
2022-11-03T03:20:53.234Z,25.93
2022-11-03T03:23:32.609Z,16.77
2022-11-03T03:26:04.730Z,16.57
2022-11-03T03:28:37.995Z,18.30
2022-11-03T03:31:09.859Z,19.53
2022-11-03T03:33:42.047Z,20.97
2022-11-03T03:36:15.517Z,22.83
2022-11-03T03:38:47.367Z,20.23
2022-11-03T03:41:21.969Z,18.53
2022-11-03T03:43:54.587Z,16.13
2022-11-03T03:46:25.039Z,15.77
2022-11-03T03:48:52.616Z,18.00
2022-11-03T03:51:24.030Z,14.80
2022-11-03T03:53:53.073Z,19.27
2022-11-03T03:56:24.672Z,21.80
2022-11-03T03:58:53.562Z,18.33
2022-11-03T04:01:21.228Z,16.93
2022-11-03T04:03:49.098Z,14.87
2022-11-03T04:06:16.741Z,16.33
2022-11-03T04:08:44.720Z,14.33
2022-11-03T04:11:29.909Z,18.37
2022-11-03T04:14:17.056Z,13.87
2022-11-03T04:17:02.081Z,15.47
2022-11-03T04:19:47.393Z,16.83
2022-11-03T04:22:17.616Z,17.27
2022-11-03T04:24:46.409Z,16.17
2022-11-03T04:27:27.775Z,16.73
2022-11-03T04:29:59.167Z,17.07
2022-11-03T04:32:27.106Z,18.10
2022-11-03T04:34:55.077Z,15.87
2022-11-03T04:37:23.128Z,13.90
2022-11-03T04:39:50.756Z,13.87
2022-11-03T04:42:20.464Z,13.57
2022-11-03T04:44:49.250Z,13.93
2022-11-03T04:47:19.521Z,13.83
2022-11-03T04:49:48.514Z,12.47
2022-11-03T04:52:17.946Z,12.33
2022-11-03T04:54:47.517Z,12.97
2022-11-03T04:57:17.057Z,14.40
2022-11-03T04:59:48.411Z,13.53
2022-11-03T05:02:20.057Z,14.83
2022-11-03T05:04:47.844Z,14.63
2022-11-03T05:07:25.408Z,15.20
2022-11-03T05:09:53.232Z,11.77
2022-11-03T05:12:21.687Z,12.33
2022-11-03T05:14:51.901Z,14.97
2022-11-03T05:17:27.030Z,14.23
2022-11-03T05:19:58.824Z,13.27
2022-11-03T05:22:30.338Z,11.17
2022-11-03T05:25:03.574Z,11.53
2022-11-03T05:27:31.427Z,10.37
2022-11-03T05:30:01.429Z,11.43
2022-11-03T05:32:35.180Z,13.10
2022-11-03T05:35:03.491Z,13.73
2022-11-03T05:37:33.643Z,16.33
2022-11-03T05:40:04.967Z,15.77
2022-11-03T05:42:38.694Z,12.07
2022-11-03T05:45:16.967Z,17.80
2022-11-03T05:47:45.902Z,14.33
2022-11-03T05:50:20.893Z,13.47
2022-11-03T05:52:51.588Z,12.40
2022-11-03T05:55:27.691Z,13.40
2022-11-03T05:57:58.371Z,13.33
2022-11-03T06:00:29.272Z,12.93
2022-11-03T06:02:59.585Z,15.63
2022-11-03T06:05:28.793Z,15.23
2022-11-03T06:07:57.517Z,16.00
2022-11-03T06:10:27.348Z,13.43
2022-11-03T06:13:00.327Z,12.93
2022-11-03T06:15:32.792Z,11.73
2022-11-03T06:18:11.234Z,14.67
2022-11-03T06:20:38.800Z,17.87
2022-11-03T06:23:10.499Z,17.27
2022-11-03T06:25:41.842Z,17.33
2022-11-03T06:28:16.283Z,17.90
2022-11-03T06:30:44.091Z,13.30
2022-11-03T06:33:16.464Z,16.50
2022-11-03T06:35:45.122Z,14.20
2022-11-03T06:38:20.766Z,13.87
2022-11-03T06:40:51.048Z,17.50
2022-11-03T06:43:22.652Z,19.43
2022-11-03T06:45:53.015Z,17.97
2022-11-03T06:48:27.617Z,19.33
2022-11-03T06:50:56.902Z,15.30
2022-11-03T06:53:30.527Z,12.87
2022-11-03T06:55:58.406Z,11.87
2022-11-03T06:58:29.937Z,11.87
2022-11-03T07:01:03.616Z,13.10
2022-11-03T07:03:37.472Z,14.37
2022-11-03T07:06:16.165Z,13.47
2022-11-03T07:08:45.966Z,9.97
2022-11-03T07:11:18.332Z,7.97
2022-11-03T07:13:47.373Z,10.37
2022-11-03T07:16:19.213Z,9.53
2022-11-03T07:18:48.741Z,10.57
2022-11-03T07:21:42.231Z,8.40
2022-11-03T07:24:17.388Z,9.00
2022-11-03T07:26:45.112Z,8.97
2022-11-03T07:29:21.034Z,11.00
2022-11-03T07:31:49.376Z,16.47
2022-11-03T07:34:22.954Z,17.70
2022-11-03T07:36:55.624Z,12.00
2022-11-03T07:39:23.407Z,8.85
2022-11-03T07:41:51.883Z,7.57
2022-11-03T07:44:21.655Z,7.00
2022-11-03T07:46:50.659Z,12.83
2022-11-03T07:49:27.704Z,9.83
2022-11-03T07:51:57.179Z,7.80
2022-11-03T07:54:27.591Z,11.37
2022-11-03T07:56:59.115Z,6.57
2022-11-03T07:59:31.936Z,6.00
2022-11-03T08:02:00.894Z,7.00
2022-11-03T08:04:32.576Z,5.47
2022-11-03T08:07:00.175Z,5.77
2022-11-03T08:09:28.050Z,7.43
2022-11-03T08:11:55.586Z,6.33
2022-11-03T08:14:23.142Z,5.50
2022-11-03T08:16:50.669Z,6.35
2022-11-03T08:19:18.193Z,6.80
2022-11-03T08:21:47.082Z,23.35
2022-11-03T08:24:14.607Z,35.63
2022-11-03T08:26:42.129Z,39.80
2022-11-03T08:29:09.949Z,37.72
2022-11-03T08:31:37.500Z,10.25
2022-11-03T08:34:05.068Z,10.68
2022-11-03T08:36:32.670Z,13.55
2022-11-03T08:39:01.628Z,12.57
2022-11-03T08:41:29.162Z,37.33
2022-11-03T08:43:56.828Z,40.70
2022-11-03T08:46:24.371Z,40.08
2022-11-03T08:48:51.937Z,32.15
2022-11-03T08:51:19.522Z,24.38
2022-11-03T08:53:50.507Z,8.25
2022-11-03T08:56:22.349Z,5.35
2022-11-03T08:58:50.755Z,6.78
2022-11-03T09:01:18.648Z,5.60
2022-11-03T09:03:46.276Z,4.78
2022-11-03T09:06:14.574Z,5.53
2022-11-03T09:11:30.986Z,4.78
2022-11-03T09:13:58.552Z,4.45
2022-11-03T09:16:26.539Z,5.22
2022-11-03T09:18:54.167Z,5.03
2022-11-03T09:21:21.696Z,4.90
2022-11-03T09:23:49.253Z,4.50
2022-11-03T09:26:16.896Z,4.78
2022-11-03T09:28:45.905Z,4.28
2022-11-03T09:31:13.786Z,4.20
2022-11-03T09:33:41.347Z,4.15
2022-11-03T09:36:09.440Z,3.83
2022-11-03T09:38:37.038Z,3.55
2022-11-03T09:41:13.563Z,4.05
2022-11-03T09:43:54.900Z,3.97
2022-11-03T09:46:22.426Z,4.25
2022-11-03T09:48:49.981Z,4.30
2022-11-03T09:51:21.715Z,4.25
2022-11-03T09:53:49.842Z,3.88
2022-11-03T09:56:20.375Z,3.42
2022-11-03T09:58:53.073Z,3.10
2022-11-03T10:01:23.573Z,3.28
2022-11-03T10:03:51.301Z,3.35
2022-11-03T10:06:18.908Z,2.97
2022-11-03T10:08:48.282Z,3.20
2022-11-03T10:11:16.118Z,2.67
2022-11-03T10:13:48.820Z,3.08
2022-11-03T10:16:19.530Z,3.05
2022-11-03T10:18:48.567Z,3.08
2022-11-03T10:21:17.981Z,2.92
2022-11-03T10:23:45.789Z,2.72
2022-11-03T10:26:16.394Z,3.05
2022-11-03T10:28:59.238Z,2.92
2022-11-03T10:31:34.487Z,3.28
2022-11-03T10:34:04.140Z,2.95
2022-11-03T10:36:34.233Z,2.83
2022-11-03T10:39:30.660Z,2.90
2022-11-03T10:41:59.919Z,3.25
2022-11-03T10:44:29.179Z,3.30
2022-11-03T10:46:58.336Z,3.10
2022-11-03T10:49:26.366Z,3.60
2022-11-03T10:51:56.103Z,3.38
2022-11-03T10:54:26.285Z,3.50
2022-11-03T10:56:54.054Z,4.30
2022-11-03T10:59:25.272Z,4.10
2022-11-03T11:01:53.269Z,4.25
2022-11-03T11:04:21.985Z,4.03
2022-11-03T11:06:49.792Z,4.57
2022-11-03T11:09:25.484Z,4.32
2022-11-03T11:12:05.316Z,4.38
2022-11-03T11:14:39.239Z,3.90
2022-11-03T11:17:07.377Z,4.35
2022-11-03T11:20:05.245Z,4.22
2022-11-03T11:22:32.770Z,4.40
2022-11-03T11:25:02.454Z,4.30
2022-11-03T11:27:58.941Z,4.32
2022-11-03T11:31:03.578Z,5.07
2022-11-03T11:33:33.073Z,4.15
2022-11-03T11:36:20.040Z,4.85
2022-11-03T11:39:05.846Z,4.47
2022-11-03T11:42:11.974Z,4.40
2022-11-03T11:45:02.942Z,4.88
2022-11-03T11:47:43.693Z,3.70
2022-11-03T11:50:23.259Z,4.50
2022-11-03T11:52:56.837Z,4.97
2022-11-03T11:55:30.966Z,4.78
2022-11-03T11:58:00.287Z,4.18
2022-11-03T12:00:31.292Z,4.70
2022-11-03T12:03:00.871Z,4.55
2022-11-03T12:05:32.063Z,5.00
2022-11-03T12:07:59.797Z,4.20
2022-11-03T12:10:28.794Z,4.35
2022-11-03T12:12:57.602Z,4.65
2022-11-03T12:15:55.169Z,4.75
2022-11-03T12:18:38.923Z,4.15
2022-11-03T12:21:09.661Z,3.80
2022-11-03T12:23:41.107Z,3.90
2022-11-03T12:26:17.390Z,4.38
2022-11-03T12:28:45.411Z,4.22
2022-11-03T12:31:14.281Z,4.32
2022-11-03T12:33:41.829Z,4.40
2022-11-03T12:36:10.165Z,4.20
2022-11-03T12:38:37.749Z,4.28
2022-11-03T12:41:19.361Z,4.05
2022-11-03T12:43:47.112Z,3.78
2022-11-03T12:46:16.369Z,4.20
2022-11-03T12:48:44.773Z,4.40
2022-11-03T12:51:13.765Z,4.28
2022-11-03T12:53:42.026Z,3.90
2022-11-03T12:56:10.516Z,3.33
2022-11-03T12:58:38.432Z,4.50
2022-11-03T13:01:06.473Z,4.10
2022-11-03T13:03:36.533Z,4.22
2022-11-03T13:06:05.593Z,4.05
2022-11-03T13:08:33.181Z,4.63
2022-11-03T13:11:00.901Z,4.30
2022-11-03T13:13:28.830Z,4.07
2022-11-03T13:15:56.358Z,3.88
2022-11-03T13:18:23.890Z,3.55
2022-11-03T13:20:52.784Z,4.50
2022-11-03T13:23:22.996Z,3.85
2022-11-03T13:25:50.974Z,4.22
2022-11-03T13:28:18.584Z,3.80
2022-11-03T13:30:46.137Z,4.50
2022-11-03T13:33:13.682Z,4.18
2022-11-03T13:35:41.246Z,4.35
2022-11-03T13:38:10.165Z,4.00
2022-11-03T13:43:25.519Z,4.60
2022-11-03T13:45:53.891Z,3.75
2022-11-03T13:49:19.970Z,4.20
2022-11-03T13:51:11.947Z,4.00
2022-11-03T13:56:28.732Z,3.88
2022-11-03T14:01:44.069Z,4.32
2022-11-03T14:06:59.704Z,4.28
2022-11-03T14:09:29.177Z,4.20
2022-11-03T14:12:14.523Z,5.35
2022-11-03T14:14:42.247Z,4.18
2022-11-03T14:17:09.873Z,5.38
2022-11-03T14:19:43.739Z,4.38
2022-11-03T14:22:13.663Z,4.20
2022-11-03T14:24:42.545Z,5.07
2022-11-03T14:27:10.072Z,5.50
2022-11-03T14:29:37.597Z,6.25
2022-11-03T14:32:05.521Z,5.55
2022-11-03T14:34:33.283Z,5.55
2022-11-03T14:37:01.250Z,6.80
2022-11-03T14:39:29.258Z,5.82
2022-11-03T14:42:06.344Z,6.65
2022-11-03T14:44:35.473Z,6.97
2022-11-03T14:47:04.758Z,6.95
2022-11-03T14:49:33.585Z,5.57
2022-11-03T14:52:02.567Z,5.70
2022-11-03T14:54:31.172Z,6.22
2022-11-03T14:57:00.337Z,6.07
2022-11-03T14:59:27.943Z,6.93
2022-11-03T15:01:56.459Z,6.75
2022-11-03T15:04:24.355Z,6.57
2022-11-03T15:06:51.921Z,7.43
2022-11-03T15:09:19.669Z,7.03
2022-11-03T15:11:47.670Z,6.75
2022-11-03T15:14:16.575Z,6.43
2022-11-03T15:16:46.095Z,6.45
2022-11-03T15:19:14.070Z,6.25
2022-11-03T15:21:41.645Z,6.68
2022-11-03T15:26:56.932Z,6.13
2022-11-03T15:29:25.850Z,6.18
2022-11-03T15:31:53.376Z,6.45
2022-11-03T15:34:20.902Z,5.25
2022-11-03T15:36:48.472Z,6.40
2022-11-03T15:39:16.077Z,6.22
2022-11-03T15:41:43.583Z,5.53
2022-11-03T15:44:11.088Z,5.38
2022-11-03T15:46:39.930Z,5.75
2022-11-03T15:49:07.497Z,5.53
2022-11-03T15:51:35.009Z,5.90
2022-11-03T15:54:03.209Z,5.95
2022-11-03T15:56:31.285Z,6.00
2022-11-03T15:58:58.832Z,7.65
2022-11-03T16:01:26.452Z,7.20
2022-11-03T16:03:55.394Z,6.88
2022-11-03T16:06:40.274Z,8.18
2022-11-03T16:09:10.496Z,9.93
2022-11-03T16:11:38.028Z,17.80
2022-11-03T16:14:05.564Z,12.75
2022-11-03T16:16:33.087Z,10.70
2022-11-03T16:19:02.079Z,24.65
2022-11-03T16:21:29.775Z,26.17
2022-11-03T16:23:57.359Z,21.23
2022-11-03T16:26:24.921Z,23.40
2022-11-03T16:28:52.475Z,24.75
2022-11-03T16:31:20.039Z,15.27
2022-11-03T16:33:47.584Z,15.52
2022-11-03T16:36:16.586Z,12.98
2022-11-03T16:38:44.204Z,16.60
2022-11-03T16:41:11.777Z,14.88
2022-11-03T16:43:39.522Z,15.60
2022-11-03T16:46:07.115Z,15.60
2022-11-03T16:48:34.923Z,14.75
2022-11-03T16:51:02.416Z,16.08
2022-11-03T16:53:31.267Z,19.75
2022-11-03T16:55:58.844Z,19.42
2022-11-03T16:58:26.446Z,17.38
2022-11-03T17:00:54.030Z,23.40
2022-11-03T17:03:21.595Z,20.85
2022-11-03T17:05:49.125Z,17.77
2022-11-03T17:08:50.782Z,19.98
2022-11-03T17:11:05.730Z,18.10
2022-11-03T17:13:33.325Z,16.83
2022-11-03T17:16:00.927Z,14.85
2022-11-03T17:18:28.486Z,14.23
2022-11-03T17:20:56.025Z,14.32
2022-11-03T17:23:23.583Z,14.70
2022-11-03T17:25:51.175Z,12.65
2022-11-03T17:28:20.054Z,15.93
2022-11-03T17:30:48.005Z,17.52
2022-11-03T17:33:19.628Z,18.23
2022-11-03T17:35:47.686Z,18.88
2022-11-03T17:38:17.194Z,18.15
2022-11-03T17:40:46.048Z,20.13
2022-11-03T17:43:21.929Z,16.17
2022-11-03T17:45:49.766Z,19.17
2022-11-03T17:48:18.353Z,20.38
2022-11-03T17:50:47.922Z,21.77
2022-11-03T17:53:22.433Z,17.00
2022-11-03T17:56:08.832Z,14.27
2022-11-03T17:58:46.269Z,23.48
2022-11-03T18:01:21.074Z,20.63
2022-11-03T18:03:48.722Z,19.08
2022-11-03T18:06:19.201Z,17.90
2022-11-03T18:08:47.475Z,21.00
2022-11-03T18:11:30.746Z,16.60
2022-11-03T18:14:00.148Z,19.58
2022-11-03T18:16:27.831Z,18.50
2022-11-03T18:18:55.394Z,16.95
2022-11-03T18:21:24.322Z,16.63
2022-11-03T18:23:51.878Z,17.90
2022-11-03T18:26:21.195Z,16.00
2022-11-03T18:28:50.332Z,16.80
2022-11-03T18:31:24.459Z,19.50
2022-11-03T18:33:52.730Z,17.08
2022-11-03T18:36:21.089Z,18.65
2022-11-03T18:38:49.305Z,17.95
2022-11-03T18:41:36.263Z,17.88
2022-11-03T18:44:07.708Z,19.60
2022-11-03T18:46:36.600Z,19.17
2022-11-03T18:49:04.200Z,19.85
2022-11-03T18:51:31.818Z,19.30
2022-11-03T18:53:59.950Z,19.73
2022-11-03T18:56:28.367Z,15.73
2022-11-03T18:58:58.197Z,18.13
2022-11-03T19:01:27.459Z,16.58
2022-11-03T19:03:57.341Z,16.58
2022-11-03T19:06:25.271Z,18.88
2022-11-03T19:08:59.490Z,18.40
2022-11-03T19:11:28.005Z,21.02
2022-11-03T19:13:55.729Z,15.63
2022-11-03T19:16:24.876Z,20.38
2022-11-03T19:18:53.263Z,17.52
2022-11-03T19:21:24.378Z,19.55
2022-11-03T19:23:58.090Z,18.50
2022-11-03T19:26:30.264Z,21.02
2022-11-03T19:29:02.099Z,17.98
2022-11-03T19:31:33.956Z,21.23
2022-11-03T19:34:02.073Z,19.95
2022-11-03T19:36:31.460Z,17.35
2022-11-03T19:39:00.183Z,20.83
2022-11-03T19:41:45.557Z,19.23
2022-11-03T19:44:14.426Z,17.45
2022-11-03T19:46:42.950Z,18.77
2022-11-03T19:49:14.563Z,18.63
2022-11-03T19:51:43.689Z,18.20
2022-11-03T19:54:16.428Z,20.33
2022-11-03T19:56:43.985Z,25.35
2022-11-03T19:59:13.363Z,26.75
2022-11-03T20:01:41.051Z,24.60
2022-11-03T20:04:09.494Z,23.98
2022-11-03T20:06:38.171Z,27.83
2022-11-03T20:09:08.471Z,26.13
2022-11-03T20:11:36.593Z,26.58
2022-11-03T20:14:05.037Z,28.25
2022-11-03T20:16:32.617Z,26.92
2022-11-03T20:19:00.164Z,28.70
2022-11-03T20:21:34.061Z,23.38
2022-11-03T20:24:02.292Z,26.27
2022-11-03T20:26:31.385Z,18.25
2022-11-03T20:28:59.820Z,26.70
2022-11-03T20:31:27.397Z,26.30
2022-11-03T20:33:54.908Z,24.45
2022-11-03T20:36:22.792Z,27.58
2022-11-03T20:38:53.265Z,24.63
2022-11-03T20:41:21.076Z,22.02
2022-11-03T20:43:49.990Z,17.35
2022-11-03T20:46:23.610Z,22.92
2022-11-03T20:48:51.639Z,16.73
2022-11-03T20:51:21.267Z,18.92
2022-11-03T20:53:49.265Z,20.35
2022-11-03T20:56:19.779Z,26.52
2022-11-03T20:58:48.047Z,21.00
2022-11-03T21:01:19.391Z,24.83
2022-11-03T21:04:02.583Z,23.88
2022-11-03T21:06:32.350Z,21.73
2022-11-03T21:09:00.478Z,19.67
2022-11-03T21:11:31.044Z,20.92
2022-11-03T21:14:00.297Z,19.58
2022-11-03T21:16:48.128Z,20.35
2022-11-03T21:19:35.178Z,19.98
2022-11-03T21:22:03.204Z,20.38
2022-11-03T21:24:30.749Z,21.10
2022-11-03T21:26:58.287Z,19.88
2022-11-03T21:29:53.466Z,19.15
2022-11-03T21:32:17.034Z,19.23
2022-11-03T21:34:45.091Z,19.58
2022-11-03T21:37:15.135Z,17.63
2022-11-03T21:39:43.003Z,18.10
2022-11-03T21:42:28.494Z,17.20
2022-11-03T21:44:56.034Z,20.50
2022-11-03T21:47:25.675Z,17.45
2022-11-03T21:49:52.673Z,17.58
2022-11-03T21:52:31.584Z,17.15
2022-11-03T21:55:00.165Z,17.08
2022-11-03T21:57:28.418Z,18.02
2022-11-03T21:59:58.599Z,18.73
2022-11-03T22:02:29.985Z,17.13
2022-11-03T22:04:57.897Z,15.55
2022-11-03T22:07:25.759Z,19.52
2022-11-03T22:09:53.278Z,16.98
2022-11-03T22:12:20.868Z,17.52
2022-11-03T22:15:06.061Z,17.83
2022-11-03T22:17:35.243Z,17.60
2022-11-03T22:20:20.532Z,18.75
2022-11-03T22:23:05.693Z,18.88
2022-11-03T22:25:50.659Z,18.27
2022-11-03T22:28:18.450Z,15.00
2022-11-03T22:31:03.881Z,17.48
2022-11-03T22:33:52.770Z,14.52
2022-11-03T22:36:25.586Z,16.45
2022-11-03T22:39:10.739Z,18.75
2022-11-03T22:41:55.773Z,15.52
2022-11-03T22:44:55.706Z,18.35
2022-11-03T22:47:23.288Z,20.33
2022-11-03T22:49:52.171Z,24.30
2022-11-03T22:52:19.683Z,22.02
2022-11-03T22:54:46.222Z,22.40
2022-11-03T22:57:14.102Z,18.63
2022-11-03T22:59:41.873Z,18.55
2022-11-03T23:02:27.189Z,25.13
2022-11-03T23:04:56.117Z,19.20
2022-11-03T23:07:28.442Z,19.35
2022-11-03T23:09:59.131Z,19.13
2022-11-03T23:12:26.659Z,20.80
2022-11-03T23:15:11.893Z,21.33
2022-11-03T23:17:56.864Z,22.23
2022-11-03T23:20:43.086Z,20.13
2022-11-03T23:23:30.646Z,23.50
2022-11-03T23:25:57.202Z,26.75
2022-11-03T23:28:24.776Z,29.70
2022-11-03T23:30:52.311Z,30.98
2022-11-03T23:33:19.829Z,19.80
2022-11-03T23:35:48.702Z,19.05
2022-11-03T23:38:16.251Z,19.27
2022-11-03T23:40:43.777Z,19.92
2022-11-03T23:43:11.280Z,21.02
2022-11-03T23:45:56.530Z,19.83
2022-11-03T23:48:44.177Z,23.23
2022-11-03T23:51:13.612Z,21.35
2022-11-03T23:53:41.127Z,23.42
2022-11-03T23:56:27.158Z,24.33
2022-11-03T23:58:55.020Z,20.63
